Terminal Aerodrome Forecast
Issued by NWS

Home | Current Version | Previous Version | Text Only | Print | Product List | Glossary On
Versions: 1 2 3 4 5 6 7 8 9 10 11 12 13 14 15 16 17 18 19 20 21 22 23 24 25 26 27 28 29
244
FTUS41 KBUF 281416 AAA
TAFIAG
TAF AMD
KIAG 281416Z 2814/2912 25010KT P6SM SCT025
     FM281800 24012G20KT 6SM -SHRA VCTS BKN040CB
     FM282300 26008KT P6SM VCSH BKN040
     FM290200 30006KT P6SM SCT040=

USA.gov is the U.S. government's official web portal to all federal, state and local government web resources and services.